Upper Anton Chico, New Mexico
Current Conditions -  °F | °C
As of 12:53 AM on Friday 28 Nov 2014 (Local Time) from KCQC Reporting Station
Clear Clear  
Wind Chill: 29°   Ceiling: Unl
Heat Index: 37°   Visibility: 10mi
Dew Point: 20°   Wind: 13mph
Humidity: 50%   Direction: 290°WNW
Pressure: 30.3"   Gusts: NA
Location:  35.086°N, 105.064°W
Report Text: KCQC 280753Z AUTO 29011KT 10SM CLR 03/M07 A3030 RMK AO2 SLP217 T00281067
Loading
Personal Weather Stations






























Interactive Weather Map New forecast layout! Learn more

10-Day Weather Forecast

Advertisements
Track Severe Weather on mobile